sensor_id;sensor_type;location;lat;lon;timestamp;P1;durP1;ratioP1;P2;durP2;ratioP2
11537;SDS011;50159;49.426;11.182;2022-11-15T00:01:14;4.40;;;4.10;;
11537;SDS011;50159;49.426;11.182;2022-11-15T00:03:44;4.77;;;4.13;;
11537;SDS011;50159;49.426;11.182;2022-11-15T00:06:11;4.60;;;4.20;;
11537;SDS011;50159;49.426;11.182;2022-11-15T00:08:38;4.60;;;4.27;;
11537;SDS011;50159;49.426;11.182;2022-11-15T00:11:05;6.63;;;4.33;;
11537;SDS011;50159;49.426;11.182;2022-11-15T00:13:31;9.17;;;4.57;;
11537;SDS011;50159;49.426;11.182;2022-11-15T00:16:00;4.33;;;4.03;;
11537;SDS011;50159;49.426;11.182;2022-11-15T00:18:28;3.80;;;3.60;;
11537;SDS011;50159;49.426;11.182;2022-11-15T00:20:56;4.50;;;4.03;;
11537;SDS011;50159;49.426;11.182;2022-11-15T00:23:35;6.00;;;4.17;;
11537;SDS011;50159;49.426;11.182;2022-11-15T00:26:03;5.57;;;4.43;;
11537;SDS011;50159;49.426;11.182;2022-11-15T00:28:30;4.93;;;4.23;;
11537;SDS011;50159;49.426;11.182;2022-11-15T00:31:04;3.90;;;3.63;;
11537;SDS011;50159;49.426;11.182;2022-11-15T00:33:33;4.00;;;3.53;;
11537;SDS011;50159;49.426;11.182;2022-11-15T00:36:01;4.07;;;3.77;;
11537;SDS011;50159;49.426;11.182;2022-11-15T00:38:31;4.53;;;4.13;;
11537;SDS011;50159;49.426;11.182;2022-11-15T00:41:03;4.70;;;3.77;;
11537;SDS011;50159;49.426;11.182;2022-11-15T00:43:35;4.60;;;4.30;;
11537;SDS011;50159;49.426;11.182;2022-11-15T00:46:02;3.87;;;3.67;;
11537;SDS011;50159;49.426;11.182;2022-11-15T00:48:29;5.07;;;4.67;;
11537;SDS011;50159;49.426;11.182;2022-11-15T00:50:57;6.03;;;4.10;;
11537;SDS011;50159;49.426;11.182;2022-11-15T00:53:24;4.07;;;3.87;;
11537;SDS011;50159;49.426;11.182;2022-11-15T00:55:51;4.27;;;3.97;;
11537;SDS011;50159;49.426;11.182;2022-11-15T00:58:18;4.40;;;3.97;;
11537;SDS011;50159;49.426;11.182;2022-11-15T01:00:45;4.03;;;3.83;;
11537;SDS011;50159;49.426;11.182;2022-11-15T01:03:11;5.23;;;3.87;;
11537;SDS011;50159;49.426;11.182;2022-11-15T01:05:38;4.23;;;3.93;;
11537;SDS011;50159;49.426;11.182;2022-11-15T01:08:05;4.63;;;4.33;;
11537;SDS011;50159;49.426;11.182;2022-11-15T01:10:33;5.03;;;4.13;;
11537;SDS011;50159;49.426;11.182;2022-11-15T01:12:59;4.70;;;4.30;;
11537;SDS011;50159;49.426;11.182;2022-11-15T01:15:26;4.63;;;4.23;;
11537;SDS011;50159;49.426;11.182;2022-11-15T01:17:53;4.43;;;4.13;;
11537;SDS011;50159;49.426;11.182;2022-11-15T01:20:20;4.93;;;4.30;;
11537;SDS011;50159;49.426;11.182;2022-11-15T01:22:47;4.57;;;4.17;;
11537;SDS011;50159;49.426;11.182;2022-11-15T01:25:14;8.07;;;4.63;;
11537;SDS011;50159;49.426;11.182;2022-11-15T01:27:41;4.50;;;4.10;;
11537;SDS011;50159;49.426;11.182;2022-11-15T01:30:08;4.70;;;4.27;;
11537;SDS011;50159;49.426;11.182;2022-11-15T01:32:35;4.37;;;4.07;;
11537;SDS011;50159;49.426;11.182;2022-11-15T01:35:02;5.00;;;4.60;;
11537;SDS011;50159;49.426;11.182;2022-11-15T01:37:29;4.23;;;3.93;;
11537;SDS011;50159;49.426;11.182;2022-11-15T01:39:55;4.10;;;3.80;;
11537;SDS011;50159;49.426;11.182;2022-11-15T01:42:22;4.57;;;4.07;;
11537;SDS011;50159;49.426;11.182;2022-11-15T01:44:50;5.77;;;3.60;;
11537;SDS011;50159;49.426;11.182;2022-11-15T01:47:19;4.43;;;4.03;;
11537;SDS011;50159;49.426;11.182;2022-11-15T01:52:30;9.43;;;3.93;;
11537;SDS011;50159;49.426;11.182;2022-11-15T01:55:02;3.93;;;3.70;;
11537;SDS011;50159;49.426;11.182;2022-11-15T01:57:35;5.93;;;3.37;;
11537;SDS011;50159;49.426;11.182;2022-11-15T02:00:03;4.00;;;3.70;;
11537;SDS011;50159;49.426;11.182;2022-11-15T02:02:32;5.90;;;4.03;;
11537;SDS011;50159;49.426;11.182;2022-11-15T02:05:01;4.80;;;3.60;;
11537;SDS011;50159;49.426;11.182;2022-11-15T02:07:29;4.13;;;3.73;;
11537;SDS011;50159;49.426;11.182;2022-11-15T02:09:59;3.57;;;3.37;;
11537;SDS011;50159;49.426;11.182;2022-11-15T02:12:33;3.93;;;3.63;;
11537;SDS011;50159;49.426;11.182;2022-11-15T02:15:03;3.90;;;3.47;;
11537;SDS011;50159;49.426;11.182;2022-11-15T02:17:54;4.33;;;3.97;;
11537;SDS011;50159;49.426;11.182;2022-11-15T02:20:55;3.43;;;3.23;;
11537;SDS011;50159;49.426;11.182;2022-11-15T02:23:53;4.13;;;3.70;;
11537;SDS011;50159;49.426;11.182;2022-11-15T02:30:21;3.27;;;3.13;;
11537;SDS011;50159;49.426;11.182;2022-11-15T02:36:11;5.57;;;3.80;;
11537;SDS011;50159;49.426;11.182;2022-11-15T02:38:59;3.83;;;3.43;;
11537;SDS011;50159;49.426;11.182;2022-11-15T02:41:46;3.67;;;3.43;;
11537;SDS011;50159;49.426;11.182;2022-11-15T02:44:27;3.27;;;3.07;;
11537;SDS011;50159;49.426;11.182;2022-11-15T02:47:04;3.33;;;3.23;;
11537;SDS011;50159;49.426;11.182;2022-11-15T02:49:41;3.83;;;3.40;;
11537;SDS011;50159;49.426;11.182;2022-11-15T02:52:16;4.60;;;4.20;;
11537;SDS011;50159;49.426;11.182;2022-11-15T02:57:45;3.60;;;3.40;;
11537;SDS011;50159;49.426;11.182;2022-11-15T03:00:25;3.97;;;3.60;;
11537;SDS011;50159;49.426;11.182;2022-11-15T03:03:08;3.87;;;3.60;;
11537;SDS011;50159;49.426;11.182;2022-11-15T03:12:19;4.17;;;3.77;;
11537;SDS011;50159;49.426;11.182;2022-11-15T03:17:49;4.37;;;3.97;;
11537;SDS011;50159;49.426;11.182;2022-11-15T03:20:26;4.30;;;4.00;;
11537;SDS011;50159;49.426;11.182;2022-11-15T03:22:56;4.23;;;3.90;;
11537;SDS011;50159;49.426;11.182;2022-11-15T03:25:34;3.57;;;3.30;;
11537;SDS011;50159;49.426;11.182;2022-11-15T03:28:08;4.90;;;3.77;;
11537;SDS011;50159;49.426;11.182;2022-11-15T03:30:41;3.83;;;3.60;;
11537;SDS011;50159;49.426;11.182;2022-11-15T03:33:11;4.17;;;3.87;;
11537;SDS011;50159;49.426;11.182;2022-11-15T03:35:39;4.00;;;3.70;;
11537;SDS011;50159;49.426;11.182;2022-11-15T03:38:15;3.80;;;3.60;;
11537;SDS011;50159;49.426;11.182;2022-11-15T03:40:53;3.53;;;3.33;;
11537;SDS011;50159;49.426;11.182;2022-11-15T03:46:27;3.40;;;3.20;;
11537;SDS011;50159;49.426;11.182;2022-11-15T03:49:17;3.73;;;3.43;;
11537;SDS011;50159;49.426;11.182;2022-11-15T03:51:56;4.10;;;3.80;;
11537;SDS011;50159;49.426;11.182;2022-11-15T03:54:24;3.83;;;3.63;;
11537;SDS011;50159;49.426;11.182;2022-11-15T03:56:51;3.70;;;3.40;;
11537;SDS011;50159;49.426;11.182;2022-11-15T03:59:18;3.53;;;3.23;;
11537;SDS011;50159;49.426;11.182;2022-11-15T04:01:45;3.90;;;3.60;;
11537;SDS011;50159;49.426;11.182;2022-11-15T04:04:12;4.13;;;3.87;;
11537;SDS011;50159;49.426;11.182;2022-11-15T04:06:38;3.83;;;3.63;;
11537;SDS011;50159;49.426;11.182;2022-11-15T04:09:05;4.57;;;3.63;;
11537;SDS011;50159;49.426;11.182;2022-11-15T04:11:32;3.63;;;3.43;;
11537;SDS011;50159;49.426;11.182;2022-11-15T04:13:59;3.53;;;3.27;;
11537;SDS011;50159;49.426;11.182;2022-11-15T04:16:25;3.80;;;3.60;;
11537;SDS011;50159;49.426;11.182;2022-11-15T04:18:52;4.03;;;3.73;;
11537;SDS011;50159;49.426;11.182;2022-11-15T04:21:37;3.33;;;3.23;;
11537;SDS011;50159;49.426;11.182;2022-11-15T04:24:23;3.47;;;3.37;;
11537;SDS011;50159;49.426;11.182;2022-11-15T04:26:49;3.63;;;3.43;;
11537;SDS011;50159;49.426;11.182;2022-11-15T04:29:16;3.77;;;3.57;;
11537;SDS011;50159;49.426;11.182;2022-11-15T04:32:04;3.50;;;3.30;;
11537;SDS011;50159;49.426;11.182;2022-11-15T04:34:32;3.40;;;3.23;;
11537;SDS011;50159;49.426;11.182;2022-11-15T04:36:59;3.50;;;3.20;;
11537;SDS011;50159;49.426;11.182;2022-11-15T04:39:38;3.67;;;3.47;;
11537;SDS011;50159;49.426;11.182;2022-11-15T04:42:06;3.70;;;3.50;;
11537;SDS011;50159;49.426;11.182;2022-11-15T04:44:34;3.80;;;3.60;;
11537;SDS011;50159;49.426;11.182;2022-11-15T04:47:01;3.70;;;3.50;;
11537;SDS011;50159;49.426;11.182;2022-11-15T04:49:28;3.40;;;3.20;;
11537;SDS011;50159;49.426;11.182;2022-11-15T04:51:55;3.60;;;3.40;;
11537;SDS011;50159;49.426;11.182;2022-11-15T04:54:22;3.73;;;3.53;;
11537;SDS011;50159;49.426;11.182;2022-11-15T04:56:49;3.23;;;3.13;;
11537;SDS011;50159;49.426;11.182;2022-11-15T04:59:15;3.67;;;3.13;;
11537;SDS011;50159;49.426;11.182;2022-11-15T05:01:42;3.67;;;3.50;;
11537;SDS011;50159;49.426;11.182;2022-11-15T05:04:10;3.30;;;3.10;;
11537;SDS011;50159;49.426;11.182;2022-11-15T05:06:50;3.20;;;3.10;;
11537;SDS011;50159;49.426;11.182;2022-11-15T05:09:18;3.50;;;3.30;;
11537;SDS011;50159;49.426;11.182;2022-11-15T05:11:46;3.50;;;3.30;;
11537;SDS011;50159;49.426;11.182;2022-11-15T05:14:14;3.17;;;3.07;;
11537;SDS011;50159;49.426;11.182;2022-11-15T05:16:41;3.57;;;3.33;;
11537;SDS011;50159;49.426;11.182;2022-11-15T05:19:08;4.00;;;3.53;;
11537;SDS011;50159;49.426;11.182;2022-11-15T05:21:35;3.60;;;3.40;;
11537;SDS011;50159;49.426;11.182;2022-11-15T05:24:03;3.77;;;3.57;;
11537;SDS011;50159;49.426;11.182;2022-11-15T05:26:31;3.50;;;3.30;;
11537;SDS011;50159;49.426;11.182;2022-11-15T05:28:58;3.77;;;3.57;;
11537;SDS011;50159;49.426;11.182;2022-11-15T05:31:25;3.57;;;3.33;;
11537;SDS011;50159;49.426;11.182;2022-11-15T05:33:53;3.60;;;3.40;;
11537;SDS011;50159;49.426;11.182;2022-11-15T05:36:31;3.67;;;3.47;;
11537;SDS011;50159;49.426;11.182;2022-11-15T05:39:07;3.50;;;3.30;;
11537;SDS011;50159;49.426;11.182;2022-11-15T05:41:44;3.23;;;3.13;;
11537;SDS011;50159;49.426;11.182;2022-11-15T05:44:19;4.97;;;3.43;;
11537;SDS011;50159;49.426;11.182;2022-11-15T05:46:49;3.20;;;3.00;;
11537;SDS011;50159;49.426;11.182;2022-11-15T05:49:21;3.17;;;2.97;;
11537;SDS011;50159;49.426;11.182;2022-11-15T05:51:53;3.80;;;3.60;;
11537;SDS011;50159;49.426;11.182;2022-11-15T05:54:20;3.90;;;3.60;;
11537;SDS011;50159;49.426;11.182;2022-11-15T05:56:50;3.20;;;3.10;;
11537;SDS011;50159;49.426;11.182;2022-11-15T05:59:18;3.50;;;3.30;;
11537;SDS011;50159;49.426;11.182;2022-11-15T06:01:46;3.10;;;3.00;;
11537;SDS011;50159;49.426;11.182;2022-11-15T06:04:12;4.50;;;3.33;;
11537;SDS011;50159;49.426;11.182;2022-11-15T06:06:39;3.47;;;3.27;;
11537;SDS011;50159;49.426;11.182;2022-11-15T06:09:06;3.33;;;3.13;;
11537;SDS011;50159;49.426;11.182;2022-11-15T06:11:33;3.17;;;2.90;;
11537;SDS011;50159;49.426;11.182;2022-11-15T06:13:59;3.20;;;3.10;;
11537;SDS011;50159;49.426;11.182;2022-11-15T06:16:26;3.73;;;3.53;;
11537;SDS011;50159;49.426;11.182;2022-11-15T06:18:53;3.20;;;3.00;;
11537;SDS011;50159;49.426;11.182;2022-11-15T06:21:20;3.47;;;3.30;;
11537;SDS011;50159;49.426;11.182;2022-11-15T06:23:47;2.93;;;2.83;;
11537;SDS011;50159;49.426;11.182;2022-11-15T06:26:16;3.60;;;3.40;;
11537;SDS011;50159;49.426;11.182;2022-11-15T06:28:43;3.33;;;3.23;;
11537;SDS011;50159;49.426;11.182;2022-11-15T06:31:10;3.40;;;3.20;;
11537;SDS011;50159;49.426;11.182;2022-11-15T06:33:38;3.20;;;3.00;;
11537;SDS011;50159;49.426;11.182;2022-11-15T06:36:06;4.00;;;3.70;;
11537;SDS011;50159;49.426;11.182;2022-11-15T06:38:43;3.10;;;2.90;;
11537;SDS011;50159;49.426;11.182;2022-11-15T06:41:10;2.93;;;2.83;;
11537;SDS011;50159;49.426;11.182;2022-11-15T06:43:38;4.17;;;3.67;;
11537;SDS011;50159;49.426;11.182;2022-11-15T06:46:06;3.40;;;3.20;;
11537;SDS011;50159;49.426;11.182;2022-11-15T06:48:33;3.10;;;2.90;;
11537;SDS011;50159;49.426;11.182;2022-11-15T06:51:01;3.40;;;3.20;;
11537;SDS011;50159;49.426;11.182;2022-11-15T06:53:30;4.63;;;3.00;;
11537;SDS011;50159;49.426;11.182;2022-11-15T06:56:02;2.87;;;2.77;;
11537;SDS011;50159;49.426;11.182;2022-11-15T06:58:32;5.40;;;3.20;;
11537;SDS011;50159;49.426;11.182;2022-11-15T07:01:00;3.30;;;3.10;;
11537;SDS011;50159;49.426;11.182;2022-11-15T07:03:29;3.03;;;2.93;;
11537;SDS011;50159;49.426;11.182;2022-11-15T07:05:57;3.23;;;3.03;;
11537;SDS011;50159;49.426;11.182;2022-11-15T07:08:32;3.53;;;2.93;;
11537;SDS011;50159;49.426;11.182;2022-11-15T07:11:00;2.93;;;2.83;;
11537;SDS011;50159;49.426;11.182;2022-11-15T07:13:30;3.30;;;3.10;;
11537;SDS011;50159;49.426;11.182;2022-11-15T07:16:03;3.17;;;3.00;;
11537;SDS011;50159;49.426;11.182;2022-11-15T07:18:33;3.30;;;3.10;;
11537;SDS011;50159;49.426;11.182;2022-11-15T07:21:02;2.80;;;2.70;;
11537;SDS011;50159;49.426;11.182;2022-11-15T07:23:31;2.83;;;2.73;;
11537;SDS011;50159;49.426;11.182;2022-11-15T07:25:59;2.67;;;2.60;;
11537;SDS011;50159;49.426;11.182;2022-11-15T07:28:26;2.80;;;2.70;;
11537;SDS011;50159;49.426;11.182;2022-11-15T07:30:54;2.60;;;2.50;;
11537;SDS011;50159;49.426;11.182;2022-11-15T07:33:21;2.27;;;2.17;;
11537;SDS011;50159;49.426;11.182;2022-11-15T07:35:48;2.40;;;2.30;;
11537;SDS011;50159;49.426;11.182;2022-11-15T07:38:15;2.77;;;2.53;;
11537;SDS011;50159;49.426;11.182;2022-11-15T07:40:46;2.27;;;2.17;;
11537;SDS011;50159;49.426;11.182;2022-11-15T07:43:21;4.97;;;2.03;;
11537;SDS011;50159;49.426;11.182;2022-11-15T07:45:48;1.93;;;1.83;;
11537;SDS011;50159;49.426;11.182;2022-11-15T07:48:19;2.00;;;1.90;;
11537;SDS011;50159;49.426;11.182;2022-11-15T07:50:46;1.73;;;1.73;;
11537;SDS011;50159;49.426;11.182;2022-11-15T07:53:13;1.70;;;1.70;;
11537;SDS011;50159;49.426;11.182;2022-11-15T07:55:42;1.93;;;1.90;;
11537;SDS011;50159;49.426;11.182;2022-11-15T07:58:10;1.70;;;1.70;;
11537;SDS011;50159;49.426;11.182;2022-11-15T08:00:38;1.97;;;1.93;;
11537;SDS011;50159;49.426;11.182;2022-11-15T08:03:06;2.93;;;2.77;;
11537;SDS011;50159;49.426;11.182;2022-11-15T08:05:38;2.73;;;2.53;;
11537;SDS011;50159;49.426;11.182;2022-11-15T08:08:07;3.77;;;2.90;;
11537;SDS011;50159;49.426;11.182;2022-11-15T08:10:36;3.20;;;3.00;;
11537;SDS011;50159;49.426;11.182;2022-11-15T08:13:07;3.17;;;2.97;;
11537;SDS011;50159;49.426;11.182;2022-11-15T08:15:37;2.93;;;2.73;;
11537;SDS011;50159;49.426;11.182;2022-11-15T08:18:05;4.63;;;3.20;;
11537;SDS011;50159;49.426;11.182;2022-11-15T08:20:38;3.13;;;2.93;;
11537;SDS011;50159;49.426;11.182;2022-11-15T08:23:05;3.00;;;2.80;;
11537;SDS011;50159;49.426;11.182;2022-11-15T08:25:34;3.07;;;2.97;;
11537;SDS011;50159;49.426;11.182;2022-11-15T08:28:03;2.97;;;2.77;;
11537;SDS011;50159;49.426;11.182;2022-11-15T08:30:36;3.23;;;3.00;;
11537;SDS011;50159;49.426;11.182;2022-11-15T08:33:11;3.97;;;3.67;;
11537;SDS011;50159;49.426;11.182;2022-11-15T08:35:40;4.00;;;3.70;;
11537;SDS011;50159;49.426;11.182;2022-11-15T08:38:09;5.33;;;4.23;;
11537;SDS011;50159;49.426;11.182;2022-11-15T08:40:36;7.20;;;5.17;;
11537;SDS011;50159;49.426;11.182;2022-11-15T08:43:03;4.47;;;4.17;;
11537;SDS011;50159;49.426;11.182;2022-11-15T08:45:30;4.20;;;3.90;;
11537;SDS011;50159;49.426;11.182;2022-11-15T08:48:00;4.00;;;3.80;;
11537;SDS011;50159;49.426;11.182;2022-11-15T08:50:29;3.47;;;3.30;;
11537;SDS011;50159;49.426;11.182;2022-11-15T08:52:56;3.40;;;3.23;;
11537;SDS011;50159;49.426;11.182;2022-11-15T08:55:37;2.93;;;2.83;;
11537;SDS011;50159;49.426;11.182;2022-11-15T08:58:06;3.27;;;3.07;;
11537;SDS011;50159;49.426;11.182;2022-11-15T09:00:33;3.47;;;3.17;;
11537;SDS011;50159;49.426;11.182;2022-11-15T09:03:03;3.30;;;3.10;;
11537;SDS011;50159;49.426;11.182;2022-11-15T09:05:31;2.47;;;2.37;;
11537;SDS011;50159;49.426;11.182;2022-11-15T09:07:58;3.00;;;2.80;;
11537;SDS011;50159;49.426;11.182;2022-11-15T09:10:24;2.93;;;2.73;;
11537;SDS011;50159;49.426;11.182;2022-11-15T09:12:51;3.20;;;3.00;;
11537;SDS011;50159;49.426;11.182;2022-11-15T09:15:18;3.07;;;2.87;;
11537;SDS011;50159;49.426;11.182;2022-11-15T09:17:45;3.30;;;3.10;;
11537;SDS011;50159;49.426;11.182;2022-11-15T09:20:12;3.30;;;3.10;;
11537;SDS011;50159;49.426;11.182;2022-11-15T09:22:39;3.30;;;3.10;;
11537;SDS011;50159;49.426;11.182;2022-11-15T09:25:06;3.50;;;3.20;;
11537;SDS011;50159;49.426;11.182;2022-11-15T09:27:36;2.90;;;2.80;;
11537;SDS011;50159;49.426;11.182;2022-11-15T09:30:03;2.80;;;2.70;;
11537;SDS011;50159;49.426;11.182;2022-11-15T09:32:31;3.17;;;2.70;;
11537;SDS011;50159;49.426;11.182;2022-11-15T09:35:04;3.03;;;2.80;;
11537;SDS011;50159;49.426;11.182;2022-11-15T09:37:31;3.43;;;3.23;;
11537;SDS011;50159;49.426;11.182;2022-11-15T09:39:58;3.50;;;2.90;;
11537;SDS011;50159;49.426;11.182;2022-11-15T09:48:09;3.87;;;2.57;;
11537;SDS011;50159;49.426;11.182;2022-11-15T09:50:46;2.97;;;2.67;;
11537;SDS011;50159;49.426;11.182;2022-11-15T09:53:34;2.80;;;2.70;;
11537;SDS011;50159;49.426;11.182;2022-11-15T09:56:36;2.60;;;2.50;;
11537;SDS011;50159;49.426;11.182;2022-11-15T09:59:22;2.33;;;2.10;;
11537;SDS011;50159;49.426;11.182;2022-11-15T10:05:02;7.97;;;2.87;;
11537;SDS011;50159;49.426;11.182;2022-11-15T10:13:22;2.03;;;2.00;;
11537;SDS011;50159;49.426;11.182;2022-11-15T10:15:53;2.43;;;2.33;;
11537;SDS011;50159;49.426;11.182;2022-11-15T10:21:39;2.50;;;2.40;;
11537;SDS011;50159;49.426;11.182;2022-11-15T10:24:26;2.27;;;2.17;;
11537;SDS011;50159;49.426;11.182;2022-11-15T10:26:56;2.17;;;2.07;;
11537;SDS011;50159;49.426;11.182;2022-11-15T10:29:24;2.10;;;2.10;;
11537;SDS011;50159;49.426;11.182;2022-11-15T10:31:52;2.20;;;2.10;;
11537;SDS011;50159;49.426;11.182;2022-11-15T10:34:20;2.47;;;2.27;;
11537;SDS011;50159;49.426;11.182;2022-11-15T10:36:56;2.33;;;2.23;;
11537;SDS011;50159;49.426;11.182;2022-11-15T10:39:25;2.37;;;2.27;;
11537;SDS011;50159;49.426;11.182;2022-11-15T10:41:52;2.30;;;2.20;;
11537;SDS011;50159;49.426;11.182;2022-11-15T10:44:20;4.30;;;2.37;;
11537;SDS011;50159;49.426;11.182;2022-11-15T10:49:25;2.30;;;2.10;;
11537;SDS011;50159;49.426;11.182;2022-11-15T10:54:29;2.97;;;2.07;;
11537;SDS011;50159;49.426;11.182;2022-11-15T10:57:06;2.40;;;2.30;;
11537;SDS011;50159;49.426;11.182;2022-11-15T10:59:45;2.30;;;2.17;;
11537;SDS011;50159;49.426;11.182;2022-11-15T11:10:51;2.50;;;2.30;;
11537;SDS011;50159;49.426;11.182;2022-11-15T11:13:33;2.10;;;2.00;;
11537;SDS011;50159;49.426;11.182;2022-11-15T11:18:45;3.90;;;2.50;;
11537;SDS011;50159;49.426;11.182;2022-11-15T11:36:49;2.03;;;1.93;;
11537;SDS011;50159;49.426;11.182;2022-11-15T11:39:25;1.80;;;1.70;;
11537;SDS011;50159;49.426;11.182;2022-11-15T11:42:14;2.07;;;1.60;;
11537;SDS011;50159;49.426;11.182;2022-11-15T11:47:40;2.10;;;2.00;;
11537;SDS011;50159;49.426;11.182;2022-11-15T11:50:21;2.07;;;1.97;;
11537;SDS011;50159;49.426;11.182;2022-11-15T11:55:47;1.80;;;1.80;;
11537;SDS011;50159;49.426;11.182;2022-11-15T11:58:21;2.60;;;2.13;;
11537;SDS011;50159;49.426;11.182;2022-11-15T12:03:59;2.43;;;2.00;;
11537;SDS011;50159;49.426;11.182;2022-11-15T12:06:57;2.50;;;2.30;;
11537;SDS011;50159;49.426;11.182;2022-11-15T12:17:36;1.87;;;1.80;;
11537;SDS011;50159;49.426;11.182;2022-11-15T12:20:19;2.03;;;1.93;;
11537;SDS011;50159;49.426;11.182;2022-11-15T12:25:31;2.50;;;2.10;;
11537;SDS011;50159;49.426;11.182;2022-11-15T12:28:25;2.50;;;1.80;;
11537;SDS011;50159;49.426;11.182;2022-11-15T12:34:01;2.43;;;1.97;;
11537;SDS011;50159;49.426;11.182;2022-11-15T12:36:42;2.17;;;1.97;;
11537;SDS011;50159;49.426;11.182;2022-11-15T12:39:11;2.20;;;2.10;;
11537;SDS011;50159;49.426;11.182;2022-11-15T12:41:40;2.43;;;2.33;;
11537;SDS011;50159;49.426;11.182;2022-11-15T12:44:15;2.10;;;1.97;;
11537;SDS011;50159;49.426;11.182;2022-11-15T12:47:08;6.63;;;2.27;;
11537;SDS011;50159;49.426;11.182;2022-11-15T12:49:51;2.50;;;2.23;;
11537;SDS011;50159;49.426;11.182;2022-11-15T12:52:19;2.30;;;2.10;;
11537;SDS011;50159;49.426;11.182;2022-11-15T12:54:55;2.23;;;1.90;;
11537;SDS011;50159;49.426;11.182;2022-11-15T12:57:27;2.20;;;2.10;;
11537;SDS011;50159;49.426;11.182;2022-11-15T13:00:04;1.80;;;1.80;;
11537;SDS011;50159;49.426;11.182;2022-11-15T13:02:41;2.43;;;2.00;;
11537;SDS011;50159;49.426;11.182;2022-11-15T13:18:23;2.37;;;2.23;;
11537;SDS011;50159;49.426;11.182;2022-11-15T13:21:22;2.53;;;2.33;;
11537;SDS011;50159;49.426;11.182;2022-11-15T13:24:12;2.30;;;2.10;;
11537;SDS011;50159;49.426;11.182;2022-11-15T13:26:42;2.47;;;2.33;;
11537;SDS011;50159;49.426;11.182;2022-11-15T13:29:14;2.40;;;2.20;;
11537;SDS011;50159;49.426;11.182;2022-11-15T13:31:43;2.47;;;2.27;;
11537;SDS011;50159;49.426;11.182;2022-11-15T13:39:47;2.47;;;2.27;;
11537;SDS011;50159;49.426;11.182;2022-11-15T13:42:15;4.03;;;2.37;;
11537;SDS011;50159;49.426;11.182;2022-11-15T13:44:54;2.33;;;2.23;;
11537;SDS011;50159;49.426;11.182;2022-11-15T13:47:28;3.10;;;2.90;;
11537;SDS011;50159;49.426;11.182;2022-11-15T13:49:56;2.70;;;2.60;;
11537;SDS011;50159;49.426;11.182;2022-11-15T13:52:30;2.60;;;2.40;;
11537;SDS011;50159;49.426;11.182;2022-11-15T13:55:05;3.17;;;2.70;;
11537;SDS011;50159;49.426;11.182;2022-11-15T13:57:48;3.63;;;3.43;;
11537;SDS011;50159;49.426;11.182;2022-11-15T14:00:40;2.67;;;2.57;;
11537;SDS011;50159;49.426;11.182;2022-11-15T14:03:21;2.47;;;2.37;;
11537;SDS011;50159;49.426;11.182;2022-11-15T14:06:11;2.53;;;2.37;;
11537;SDS011;50159;49.426;11.182;2022-11-15T14:08:42;4.03;;;2.17;;
11537;SDS011;50159;49.426;11.182;2022-11-15T14:11:53;2.40;;;2.20;;
11537;SDS011;50159;49.426;11.182;2022-11-15T14:14:22;2.37;;;2.27;;
11537;SDS011;50159;49.426;11.182;2022-11-15T14:16:52;2.40;;;2.30;;
11537;SDS011;50159;49.426;11.182;2022-11-15T14:27:33;2.40;;;2.30;;
11537;SDS011;50159;49.426;11.182;2022-11-15T14:30:01;2.67;;;2.57;;
11537;SDS011;50159;49.426;11.182;2022-11-15T14:32:30;2.37;;;2.27;;
11537;SDS011;50159;49.426;11.182;2022-11-15T14:35:15;2.40;;;2.30;;
11537;SDS011;50159;49.426;11.182;2022-11-15T14:37:47;2.63;;;2.43;;
11537;SDS011;50159;49.426;11.182;2022-11-15T14:40:19;3.13;;;2.93;;
11537;SDS011;50159;49.426;11.182;2022-11-15T14:42:48;2.97;;;2.83;;
11537;SDS011;50159;49.426;11.182;2022-11-15T14:45:17;3.27;;;2.97;;
11537;SDS011;50159;49.426;11.182;2022-11-15T14:47:46;3.73;;;3.47;;
11537;SDS011;50159;49.426;11.182;2022-11-15T14:50:15;3.43;;;3.13;;
11537;SDS011;50159;49.426;11.182;2022-11-15T14:52:45;3.40;;;3.20;;
11537;SDS011;50159;49.426;11.182;2022-11-15T14:55:23;3.70;;;3.40;;
11537;SDS011;50159;49.426;11.182;2022-11-15T14:57:55;4.23;;;3.80;;
11537;SDS011;50159;49.426;11.182;2022-11-15T15:00:22;4.00;;;3.70;;
11537;SDS011;50159;49.426;11.182;2022-11-15T15:02:50;4.37;;;3.80;;
11537;SDS011;50159;49.426;11.182;2022-11-15T15:05:21;4.50;;;4.10;;
11537;SDS011;50159;49.426;11.182;2022-11-15T15:08:03;4.03;;;3.73;;
11537;SDS011;50159;49.426;11.182;2022-11-15T15:10:35;3.97;;;3.67;;
11537;SDS011;50159;49.426;11.182;2022-11-15T15:13:21;4.30;;;3.30;;
11537;SDS011;50159;49.426;11.182;2022-11-15T15:15:52;2.77;;;2.67;;
11537;SDS011;50159;49.426;11.182;2022-11-15T15:18:18;4.80;;;4.40;;
11537;SDS011;50159;49.426;11.182;2022-11-15T15:20:47;3.23;;;3.13;;
11537;SDS011;50159;49.426;11.182;2022-11-15T15:23:22;4.03;;;3.73;;
11537;SDS011;50159;49.426;11.182;2022-11-15T15:25:51;4.47;;;4.17;;
11537;SDS011;50159;49.426;11.182;2022-11-15T15:28:18;5.83;;;4.23;;
11537;SDS011;50159;49.426;11.182;2022-11-15T15:30:45;4.93;;;4.27;;
11537;SDS011;50159;49.426;11.182;2022-11-15T15:33:12;8.80;;;7.03;;
11537;SDS011;50159;49.426;11.182;2022-11-15T15:35:38;10.00;;;8.60;;
11537;SDS011;50159;49.426;11.182;2022-11-15T15:38:05;9.60;;;7.57;;
11537;SDS011;50159;49.426;11.182;2022-11-15T15:40:34;7.87;;;7.07;;
11537;SDS011;50159;49.426;11.182;2022-11-15T15:43:01;8.60;;;6.60;;
11537;SDS011;50159;49.426;11.182;2022-11-15T15:45:27;11.67;;;7.20;;
11537;SDS011;50159;49.426;11.182;2022-11-15T15:47:56;9.97;;;6.63;;
11537;SDS011;50159;49.426;11.182;2022-11-15T15:50:32;10.00;;;7.37;;
11537;SDS011;50159;49.426;11.182;2022-11-15T15:53:06;7.83;;;6.43;;
11537;SDS011;50159;49.426;11.182;2022-11-15T15:55:34;6.40;;;5.80;;
11537;SDS011;50159;49.426;11.182;2022-11-15T15:58:02;7.93;;;5.50;;
11537;SDS011;50159;49.426;11.182;2022-11-15T16:00:31;9.03;;;5.93;;
11537;SDS011;50159;49.426;11.182;2022-11-15T16:03:00;9.20;;;5.83;;
11537;SDS011;50159;49.426;11.182;2022-11-15T16:05:28;6.70;;;4.63;;
11537;SDS011;50159;49.426;11.182;2022-11-15T16:07:54;5.00;;;4.53;;
11537;SDS011;50159;49.426;11.182;2022-11-15T16:12:54;5.10;;;4.50;;
11537;SDS011;50159;49.426;11.182;2022-11-15T16:15:24;6.97;;;4.90;;
11537;SDS011;50159;49.426;11.182;2022-11-15T16:17:54;6.07;;;5.47;;
11537;SDS011;50159;49.426;11.182;2022-11-15T16:20:33;7.93;;;6.80;;
11537;SDS011;50159;49.426;11.182;2022-11-15T16:23:13;8.07;;;6.33;;
11537;SDS011;50159;49.426;11.182;2022-11-15T16:25:51;7.93;;;6.70;;
11537;SDS011;50159;49.426;11.182;2022-11-15T16:33:29;11.03;;;7.20;;
11537;SDS011;50159;49.426;11.182;2022-11-15T16:35:57;8.67;;;6.80;;
11537;SDS011;50159;49.426;11.182;2022-11-15T16:38:24;9.23;;;6.47;;
11537;SDS011;50159;49.426;11.182;2022-11-15T16:40:51;9.77;;;7.07;;
11537;SDS011;50159;49.426;11.182;2022-11-15T16:43:18;7.87;;;6.17;;
11537;SDS011;50159;49.426;11.182;2022-11-15T16:45:45;11.70;;;6.57;;
11537;SDS011;50159;49.426;11.182;2022-11-15T16:48:22;9.83;;;6.03;;
11537;SDS011;50159;49.426;11.182;2022-11-15T16:50:54;10.43;;;6.17;;
11537;SDS011;50159;49.426;11.182;2022-11-15T16:53:24;8.73;;;6.77;;
11537;SDS011;50159;49.426;11.182;2022-11-15T16:55:53;9.60;;;6.97;;
11537;SDS011;50159;49.426;11.182;2022-11-15T16:58:21;10.03;;;6.97;;
11537;SDS011;50159;49.426;11.182;2022-11-15T17:00:52;9.53;;;6.90;;
11537;SDS011;50159;49.426;11.182;2022-11-15T17:03:21;7.30;;;6.17;;
11537;SDS011;50159;49.426;11.182;2022-11-15T17:05:50;9.20;;;7.33;;
11537;SDS011;50159;49.426;11.182;2022-11-15T17:08:19;10.40;;;7.27;;
11537;SDS011;50159;49.426;11.182;2022-11-15T17:10:47;9.10;;;7.13;;